sensor_id;sensor_type;location;lat;lon;timestamp;temperature;humidity
20141;DHT22;10231;47.702;9.826;2023-03-14T00:00:13;10.80;99.90
20141;DHT22;10231;47.702;9.826;2023-03-14T00:02:40;10.70;99.90
20141;DHT22;10231;47.702;9.826;2023-03-14T00:05:06;10.50;99.90
20141;DHT22;10231;47.702;9.826;2023-03-14T00:07:34;10.50;99.90
20141;DHT22;10231;47.702;9.826;2023-03-14T00:10:07;10.40;99.90
20141;DHT22;10231;47.702;9.826;2023-03-14T00:12:33;10.30;99.90
20141;DHT22;10231;47.702;9.826;2023-03-14T00:14:59;10.20;99.90
20141;DHT22;10231;47.702;9.826;2023-03-14T00:17:26;10.20;99.90
20141;DHT22;10231;47.702;9.826;2023-03-14T00:19:52;10.10;99.90
20141;DHT22;10231;47.702;9.826;2023-03-14T00:22:19;10.00;99.90
20141;DHT22;10231;47.702;9.826;2023-03-14T00:24:45;9.90;99.90
20141;DHT22;10231;47.702;9.826;2023-03-14T00:27:10;9.80;99.90
20141;DHT22;10231;47.702;9.826;2023-03-14T00:29:36;9.70;99.90
20141;DHT22;10231;47.702;9.826;2023-03-14T00:32:02;9.70;99.90
20141;DHT22;10231;47.702;9.826;2023-03-14T00:34:31;9.60;99.90
20141;DHT22;10231;47.702;9.826;2023-03-14T00:36:57;9.50;99.90
20141;DHT22;10231;47.702;9.826;2023-03-14T00:39:23;9.30;99.90
20141;DHT22;10231;47.702;9.826;2023-03-14T00:41:48;9.20;99.90
20141;DHT22;10231;47.702;9.826;2023-03-14T00:44:14;9.20;99.90
20141;DHT22;10231;47.702;9.826;2023-03-14T00:46:39;9.10;99.90
20141;DHT22;10231;47.702;9.826;2023-03-14T00:49:05;9.00;99.90
20141;DHT22;10231;47.702;9.826;2023-03-14T00:51:30;9.00;99.90
20141;DHT22;10231;47.702;9.826;2023-03-14T00:53:56;8.90;99.90
20141;DHT22;10231;47.702;9.826;2023-03-14T00:56:22;8.90;99.90
20141;DHT22;10231;47.702;9.826;2023-03-14T00:58:47;8.80;99.90
20141;DHT22;10231;47.702;9.826;2023-03-14T01:01:15;8.80;99.90
20141;DHT22;10231;47.702;9.826;2023-03-14T01:03:42;8.80;99.90
20141;DHT22;10231;47.702;9.826;2023-03-14T01:06:09;8.70;99.90
20141;DHT22;10231;47.702;9.826;2023-03-14T01:08:35;8.70;99.90
20141;DHT22;10231;47.702;9.826;2023-03-14T01:11:06;8.70;99.90
20141;DHT22;10231;47.702;9.826;2023-03-14T01:13:31;8.70;99.90
20141;DHT22;10231;47.702;9.826;2023-03-14T01:16:02;8.60;99.90
20141;DHT22;10231;47.702;9.826;2023-03-14T01:18:28;8.60;99.90
20141;DHT22;10231;47.702;9.826;2023-03-14T01:20:53;8.50;99.90
20141;DHT22;10231;47.702;9.826;2023-03-14T01:23:19;8.40;99.90
20141;DHT22;10231;47.702;9.826;2023-03-14T01:25:44;8.40;99.90
20141;DHT22;10231;47.702;9.826;2023-03-14T01:28:10;8.40;99.90
20141;DHT22;10231;47.702;9.826;2023-03-14T01:30:35;8.40;99.90
20141;DHT22;10231;47.702;9.826;2023-03-14T01:33:01;8.40;99.90
20141;DHT22;10231;47.702;9.826;2023-03-14T01:35:26;8.40;99.90
20141;DHT22;10231;47.702;9.826;2023-03-14T01:37:52;8.40;99.90
20141;DHT22;10231;47.702;9.826;2023-03-14T01:40:17;8.30;99.90
20141;DHT22;10231;47.702;9.826;2023-03-14T01:42:54;8.30;99.90
20141;DHT22;10231;47.702;9.826;2023-03-14T01:48:23;8.10;99.90
20141;DHT22;10231;47.702;9.826;2023-03-14T01:50:49;8.10;99.90
20141;DHT22;10231;47.702;9.826;2023-03-14T01:53:16;8.20;99.90
20141;DHT22;10231;47.702;9.826;2023-03-14T01:55:42;8.20;99.90
20141;DHT22;10231;47.702;9.826;2023-03-14T01:58:08;8.20;99.90
20141;DHT22;10231;47.702;9.826;2023-03-14T02:00:34;8.20;99.90
20141;DHT22;10231;47.702;9.826;2023-03-14T02:03:05;8.20;99.90
20141;DHT22;10231;47.702;9.826;2023-03-14T02:05:34;8.20;99.90
20141;DHT22;10231;47.702;9.826;2023-03-14T02:08:02;8.20;99.90
20141;DHT22;10231;47.702;9.826;2023-03-14T02:10:31;8.20;99.90
20141;DHT22;10231;47.702;9.826;2023-03-14T02:13:01;8.20;99.90
20141;DHT22;10231;47.702;9.826;2023-03-14T02:15:27;8.20;99.90
20141;DHT22;10231;47.702;9.826;2023-03-14T02:17:53;8.10;99.90
20141;DHT22;10231;47.702;9.826;2023-03-14T02:23:35;8.10;99.90
20141;DHT22;10231;47.702;9.826;2023-03-14T02:26:10;8.20;99.90
20141;DHT22;10231;47.702;9.826;2023-03-14T02:28:36;8.20;99.90
20141;DHT22;10231;47.702;9.826;2023-03-14T02:31:01;8.20;99.90
20141;DHT22;10231;47.702;9.826;2023-03-14T02:33:27;8.20;99.90
20141;DHT22;10231;47.702;9.826;2023-03-14T02:36:01;8.20;99.90
20141;DHT22;10231;47.702;9.826;2023-03-14T02:38:47;8.30;99.90
20141;DHT22;10231;47.702;9.826;2023-03-14T02:41:16;8.30;99.90
20141;DHT22;10231;47.702;9.826;2023-03-14T02:43:42;8.30;99.90
20141;DHT22;10231;47.702;9.826;2023-03-14T02:46:14;8.40;99.90
20141;DHT22;10231;47.702;9.826;2023-03-14T02:51:16;8.40;99.90
20141;DHT22;10231;47.702;9.826;2023-03-14T02:53:42;8.50;99.90
20141;DHT22;10231;47.702;9.826;2023-03-14T02:56:09;8.50;99.90
20141;DHT22;10231;47.702;9.826;2023-03-14T02:58:35;8.50;99.90
20141;DHT22;10231;47.702;9.826;2023-03-14T03:01:00;8.50;99.90
20141;DHT22;10231;47.702;9.826;2023-03-14T03:03:26;8.50;99.90
20141;DHT22;10231;47.702;9.826;2023-03-14T03:05:54;8.50;99.90
20141;DHT22;10231;47.702;9.826;2023-03-14T03:08:21;8.50;99.90
20141;DHT22;10231;47.702;9.826;2023-03-14T03:10:48;8.50;99.90
20141;DHT22;10231;47.702;9.826;2023-03-14T03:13:14;8.50;99.90
20141;DHT22;10231;47.702;9.826;2023-03-14T03:15:40;8.40;99.90
20141;DHT22;10231;47.702;9.826;2023-03-14T03:18:06;8.40;99.90
20141;DHT22;10231;47.702;9.826;2023-03-14T03:20:32;8.40;99.90
20141;DHT22;10231;47.702;9.826;2023-03-14T03:22:59;8.40;99.90
20141;DHT22;10231;47.702;9.826;2023-03-14T03:25:25;8.40;99.90
20141;DHT22;10231;47.702;9.826;2023-03-14T03:27:50;8.40;99.90
20141;DHT22;10231;47.702;9.826;2023-03-14T03:30:16;8.40;99.90
20141;DHT22;10231;47.702;9.826;2023-03-14T03:32:42;8.40;99.90
20141;DHT22;10231;47.702;9.826;2023-03-14T03:35:08;8.30;99.90
20141;DHT22;10231;47.702;9.826;2023-03-14T03:37:34;8.40;99.90
20141;DHT22;10231;47.702;9.826;2023-03-14T03:39:59;8.40;99.90
20141;DHT22;10231;47.702;9.826;2023-03-14T03:42:27;8.40;99.90
20141;DHT22;10231;47.702;9.826;2023-03-14T03:44:53;8.40;99.90
20141;DHT22;10231;47.702;9.826;2023-03-14T03:47:18;8.30;99.90
20141;DHT22;10231;47.702;9.826;2023-03-14T03:49:44;8.30;99.90
20141;DHT22;10231;47.702;9.826;2023-03-14T03:52:10;8.30;99.90
20141;DHT22;10231;47.702;9.826;2023-03-14T03:54:36;8.30;99.90
20141;DHT22;10231;47.702;9.826;2023-03-14T03:57:01;8.30;99.90
20141;DHT22;10231;47.702;9.826;2023-03-14T03:59:27;8.30;99.90
20141;DHT22;10231;47.702;9.826;2023-03-14T04:01:52;8.30;99.90
20141;DHT22;10231;47.702;9.826;2023-03-14T04:04:18;8.30;99.90
20141;DHT22;10231;47.702;9.826;2023-03-14T04:06:44;8.30;99.90
20141;DHT22;10231;47.702;9.826;2023-03-14T04:09:10;8.30;99.90
20141;DHT22;10231;47.702;9.826;2023-03-14T04:11:36;8.30;99.90
20141;DHT22;10231;47.702;9.826;2023-03-14T04:14:02;8.30;99.90
20141;DHT22;10231;47.702;9.826;2023-03-14T04:16:28;8.40;99.90
20141;DHT22;10231;47.702;9.826;2023-03-14T04:18:54;8.30;99.90
20141;DHT22;10231;47.702;9.826;2023-03-14T04:21:20;8.30;99.90
20141;DHT22;10231;47.702;9.826;2023-03-14T04:23:45;8.40;99.90
20141;DHT22;10231;47.702;9.826;2023-03-14T04:26:11;8.50;99.90
20141;DHT22;10231;47.702;9.826;2023-03-14T04:28:36;8.50;99.90
20141;DHT22;10231;47.702;9.826;2023-03-14T04:31:17;8.40;99.90
20141;DHT22;10231;47.702;9.826;2023-03-14T04:33:44;8.40;99.90
20141;DHT22;10231;47.702;9.826;2023-03-14T04:36:10;8.40;99.90
20141;DHT22;10231;47.702;9.826;2023-03-14T04:38:36;8.40;99.90
20141;DHT22;10231;47.702;9.826;2023-03-14T04:41:02;8.40;99.90
20141;DHT22;10231;47.702;9.826;2023-03-14T04:43:28;8.40;99.90
20141;DHT22;10231;47.702;9.826;2023-03-14T04:45:54;8.40;99.90
20141;DHT22;10231;47.702;9.826;2023-03-14T04:48:20;8.40;99.90
20141;DHT22;10231;47.702;9.826;2023-03-14T04:50:46;8.40;99.90
20141;DHT22;10231;47.702;9.826;2023-03-14T04:53:13;8.40;99.90
20141;DHT22;10231;47.702;9.826;2023-03-14T04:55:38;8.40;99.90
20141;DHT22;10231;47.702;9.826;2023-03-14T04:58:04;8.40;99.90
20141;DHT22;10231;47.702;9.826;2023-03-14T05:00:30;8.30;99.90
20141;DHT22;10231;47.702;9.826;2023-03-14T05:02:56;8.30;99.90
20141;DHT22;10231;47.702;9.826;2023-03-14T05:05:22;8.30;99.90
20141;DHT22;10231;47.702;9.826;2023-03-14T05:07:47;8.20;99.90
20141;DHT22;10231;47.702;9.826;2023-03-14T05:10:13;8.20;99.90
20141;DHT22;10231;47.702;9.826;2023-03-14T05:12:39;8.20;99.90
20141;DHT22;10231;47.702;9.826;2023-03-14T05:15:05;8.20;99.90
20141;DHT22;10231;47.702;9.826;2023-03-14T05:17:32;8.20;99.90
20141;DHT22;10231;47.702;9.826;2023-03-14T05:19:58;8.10;99.90
20141;DHT22;10231;47.702;9.826;2023-03-14T05:22:24;8.10;99.90
20141;DHT22;10231;47.702;9.826;2023-03-14T05:24:50;8.10;99.90
20141;DHT22;10231;47.702;9.826;2023-03-14T05:27:15;8.10;99.90
20141;DHT22;10231;47.702;9.826;2023-03-14T05:29:41;8.10;99.90
20141;DHT22;10231;47.702;9.826;2023-03-14T05:32:07;8.10;99.90
20141;DHT22;10231;47.702;9.826;2023-03-14T05:34:32;8.00;99.90
20141;DHT22;10231;47.702;9.826;2023-03-14T05:36:58;8.00;99.90
20141;DHT22;10231;47.702;9.826;2023-03-14T05:39:24;8.00;99.90
20141;DHT22;10231;47.702;9.826;2023-03-14T05:41:50;8.10;99.90
20141;DHT22;10231;47.702;9.826;2023-03-14T05:44:16;8.10;99.90
20141;DHT22;10231;47.702;9.826;2023-03-14T05:46:42;8.10;99.90
20141;DHT22;10231;47.702;9.826;2023-03-14T05:49:08;8.10;99.90
20141;DHT22;10231;47.702;9.826;2023-03-14T05:51:33;8.10;99.90
20141;DHT22;10231;47.702;9.826;2023-03-14T05:53:59;8.10;99.90
20141;DHT22;10231;47.702;9.826;2023-03-14T05:56:25;8.10;99.90
20141;DHT22;10231;47.702;9.826;2023-03-14T05:58:50;8.20;99.90
20141;DHT22;10231;47.702;9.826;2023-03-14T06:01:16;8.20;99.90
20141;DHT22;10231;47.702;9.826;2023-03-14T06:03:41;8.20;99.90
20141;DHT22;10231;47.702;9.826;2023-03-14T06:06:07;8.20;99.90
20141;DHT22;10231;47.702;9.826;2023-03-14T06:08:33;8.30;99.90
20141;DHT22;10231;47.702;9.826;2023-03-14T06:10:59;8.30;99.90
20141;DHT22;10231;47.702;9.826;2023-03-14T06:13:27;8.20;99.90
20141;DHT22;10231;47.702;9.826;2023-03-14T06:15:53;8.30;99.90
20141;DHT22;10231;47.702;9.826;2023-03-14T06:18:19;8.20;99.90
20141;DHT22;10231;47.702;9.826;2023-03-14T06:20:45;8.30;99.90
20141;DHT22;10231;47.702;9.826;2023-03-14T06:23:10;8.30;99.90
20141;DHT22;10231;47.702;9.826;2023-03-14T06:25:36;8.20;99.90
20141;DHT22;10231;47.702;9.826;2023-03-14T06:28:02;8.20;99.90
20141;DHT22;10231;47.702;9.826;2023-03-14T06:30:28;8.20;99.90
20141;DHT22;10231;47.702;9.826;2023-03-14T06:32:53;8.20;99.90
20141;DHT22;10231;47.702;9.826;2023-03-14T06:35:21;8.20;99.90
20141;DHT22;10231;47.702;9.826;2023-03-14T06:37:47;8.10;99.90
20141;DHT22;10231;47.702;9.826;2023-03-14T06:40:13;8.10;99.90
20141;DHT22;10231;47.702;9.826;2023-03-14T06:42:46;8.10;99.90
20141;DHT22;10231;47.702;9.826;2023-03-14T06:45:12;8.10;99.90
20141;DHT22;10231;47.702;9.826;2023-03-14T06:47:38;8.10;99.90
20141;DHT22;10231;47.702;9.826;2023-03-14T06:50:05;8.10;99.90
20141;DHT22;10231;47.702;9.826;2023-03-14T06:52:31;8.10;99.90
20141;DHT22;10231;47.702;9.826;2023-03-14T06:54:57;8.10;99.90
20141;DHT22;10231;47.702;9.826;2023-03-14T06:57:22;8.20;99.90
20141;DHT22;10231;47.702;9.826;2023-03-14T06:59:48;8.20;99.90
20141;DHT22;10231;47.702;9.826;2023-03-14T07:02:13;8.20;99.90
20141;DHT22;10231;47.702;9.826;2023-03-14T07:04:39;8.20;99.90
20141;DHT22;10231;47.702;9.826;2023-03-14T07:07:05;8.20;99.90
20141;DHT22;10231;47.702;9.826;2023-03-14T07:09:31;8.20;99.90
20141;DHT22;10231;47.702;9.826;2023-03-14T07:11:58;8.20;99.90
20141;DHT22;10231;47.702;9.826;2023-03-14T07:14:24;8.30;99.90
20141;DHT22;10231;47.702;9.826;2023-03-14T07:16:50;8.30;99.90
20141;DHT22;10231;47.702;9.826;2023-03-14T07:19:15;8.30;99.90
20141;DHT22;10231;47.702;9.826;2023-03-14T07:21:41;8.20;99.90
20141;DHT22;10231;47.702;9.826;2023-03-14T07:24:07;8.20;99.90
20141;DHT22;10231;47.702;9.826;2023-03-14T07:26:32;8.30;99.90
20141;DHT22;10231;47.702;9.826;2023-03-14T07:28:58;8.40;99.90
20141;DHT22;10231;47.702;9.826;2023-03-14T07:31:24;8.30;99.90
20141;DHT22;10231;47.702;9.826;2023-03-14T07:33:50;8.40;99.90
20141;DHT22;10231;47.702;9.826;2023-03-14T07:36:16;8.40;99.90
20141;DHT22;10231;47.702;9.826;2023-03-14T07:38:41;8.30;99.90
20141;DHT22;10231;47.702;9.826;2023-03-14T07:41:07;8.30;99.90
20141;DHT22;10231;47.702;9.826;2023-03-14T07:43:33;8.40;99.90
20141;DHT22;10231;47.702;9.826;2023-03-14T07:45:59;8.30;99.90
20141;DHT22;10231;47.702;9.826;2023-03-14T07:48:25;8.30;99.90
20141;DHT22;10231;47.702;9.826;2023-03-14T07:50:52;8.30;99.90
20141;DHT22;10231;47.702;9.826;2023-03-14T07:53:19;8.30;99.90
20141;DHT22;10231;47.702;9.826;2023-03-14T07:55:44;8.30;99.90
20141;DHT22;10231;47.702;9.826;2023-03-14T07:58:11;8.40;99.90
20141;DHT22;10231;47.702;9.826;2023-03-14T08:00:36;8.50;99.90
20141;DHT22;10231;47.702;9.826;2023-03-14T08:03:02;8.50;99.90
20141;DHT22;10231;47.702;9.826;2023-03-14T08:05:28;8.60;99.90
20141;DHT22;10231;47.702;9.826;2023-03-14T08:07:53;8.60;99.90
20141;DHT22;10231;47.702;9.826;2023-03-14T08:10:19;8.60;99.90
20141;DHT22;10231;47.702;9.826;2023-03-14T08:12:54;8.60;99.90
20141;DHT22;10231;47.702;9.826;2023-03-14T08:15:20;8.50;99.90
20141;DHT22;10231;47.702;9.826;2023-03-14T08:17:46;8.60;99.90
20141;DHT22;10231;47.702;9.826;2023-03-14T08:20:17;8.60;99.90
20141;DHT22;10231;47.702;9.826;2023-03-14T08:22:43;8.70;99.90
20141;DHT22;10231;47.702;9.826;2023-03-14T08:25:09;8.70;99.90
20141;DHT22;10231;47.702;9.826;2023-03-14T08:27:34;8.80;99.90
20141;DHT22;10231;47.702;9.826;2023-03-14T08:30:03;8.80;99.90
20141;DHT22;10231;47.702;9.826;2023-03-14T08:32:29;8.90;99.90
20141;DHT22;10231;47.702;9.826;2023-03-14T08:34:55;8.90;99.90
20141;DHT22;10231;47.702;9.826;2023-03-14T08:37:23;8.90;99.90
20141;DHT22;10231;47.702;9.826;2023-03-14T08:39:50;9.00;99.90
20141;DHT22;10231;47.702;9.826;2023-03-14T08:42:16;9.00;99.90
20141;DHT22;10231;47.702;9.826;2023-03-14T08:44:42;9.00;99.90
20141;DHT22;10231;47.702;9.826;2023-03-14T08:47:08;9.00;99.90
20141;DHT22;10231;47.702;9.826;2023-03-14T08:49:33;9.10;99.90
20141;DHT22;10231;47.702;9.826;2023-03-14T08:52:01;9.20;99.90
20141;DHT22;10231;47.702;9.826;2023-03-14T08:54:27;9.20;99.90
20141;DHT22;10231;47.702;9.826;2023-03-14T08:56:52;9.30;99.90
20141;DHT22;10231;47.702;9.826;2023-03-14T08:59:19;9.30;99.90
20141;DHT22;10231;47.702;9.826;2023-03-14T09:01:44;9.40;99.90
20141;DHT22;10231;47.702;9.826;2023-03-14T09:04:10;9.50;99.90
20141;DHT22;10231;47.702;9.826;2023-03-14T09:06:35;9.50;99.90
20141;DHT22;10231;47.702;9.826;2023-03-14T09:09:02;9.50;99.90
20141;DHT22;10231;47.702;9.826;2023-03-14T09:11:27;9.50;99.90
20141;DHT22;10231;47.702;9.826;2023-03-14T09:13:53;10.00;99.90
20141;DHT22;10231;47.702;9.826;2023-03-14T09:16:18;9.70;99.90
20141;DHT22;10231;47.702;9.826;2023-03-14T09:18:44;9.90;99.90
20141;DHT22;10231;47.702;9.826;2023-03-14T09:21:10;10.00;99.90
20141;DHT22;10231;47.702;9.826;2023-03-14T09:23:36;10.10;99.90
20141;DHT22;10231;47.702;9.826;2023-03-14T09:26:01;10.10;99.90
20141;DHT22;10231;47.702;9.826;2023-03-14T09:28:27;10.10;99.90
20141;DHT22;10231;47.702;9.826;2023-03-14T09:30:53;10.30;99.90
20141;DHT22;10231;47.702;9.826;2023-03-14T09:33:20;10.30;99.90
20141;DHT22;10231;47.702;9.826;2023-03-14T09:35:46;10.40;99.90
20141;DHT22;10231;47.702;9.826;2023-03-14T09:38:12;10.50;99.90
20141;DHT22;10231;47.702;9.826;2023-03-14T09:40:38;10.50;99.90
20141;DHT22;10231;47.702;9.826;2023-03-14T09:43:05;10.60;99.90
20141;DHT22;10231;47.702;9.826;2023-03-14T09:45:35;10.60;99.90
20141;DHT22;10231;47.702;9.826;2023-03-14T09:48:03;10.60;99.90
20141;DHT22;10231;47.702;9.826;2023-03-14T09:50:49;10.50;99.90
20141;DHT22;10231;47.702;9.826;2023-03-14T09:53:20;10.50;99.90
20141;DHT22;10231;47.702;9.826;2023-03-14T09:55:49;10.60;99.90
20141;DHT22;10231;47.702;9.826;2023-03-14T09:58:21;10.40;99.90
20141;DHT22;10231;47.702;9.826;2023-03-14T10:00:47;10.40;99.90
20141;DHT22;10231;47.702;9.826;2023-03-14T10:05:39;10.30;99.90
20141;DHT22;10231;47.702;9.826;2023-03-14T10:08:05;10.30;99.90
20141;DHT22;10231;47.702;9.826;2023-03-14T10:10:31;10.40;99.90
20141;DHT22;10231;47.702;9.826;2023-03-14T10:12:59;10.40;99.90
20141;DHT22;10231;47.702;9.826;2023-03-14T10:15:32;10.40;99.90
20141;DHT22;10231;47.702;9.826;2023-03-14T10:18:00;10.40;99.90
20141;DHT22;10231;47.702;9.826;2023-03-14T10:22:59;10.40;99.90
20141;DHT22;10231;47.702;9.826;2023-03-14T10:25:30;10.30;99.90
20141;DHT22;10231;47.702;9.826;2023-03-14T10:27:56;10.20;99.90
20141;DHT22;10231;47.702;9.826;2023-03-14T10:30:45;10.20;99.90
20141;DHT22;10231;47.702;9.826;2023-03-14T10:33:20;10.20;99.90
20141;DHT22;10231;47.702;9.826;2023-03-14T10:35:56;10.10;99.90
20141;DHT22;10231;47.702;9.826;2023-03-14T10:38:24;10.20;99.90
20141;DHT22;10231;47.702;9.826;2023-03-14T10:40:52;10.10;99.90
20141;DHT22;10231;47.702;9.826;2023-03-14T10:43:22;10.10;99.90
20141;DHT22;10231;47.702;9.826;2023-03-14T10:45:57;10.20;99.90
20141;DHT22;10231;47.702;9.826;2023-03-14T10:48:33;10.20;99.90
20141;DHT22;10231;47.702;9.826;2023-03-14T10:53:47;10.20;99.90
20141;DHT22;10231;47.702;9.826;2023-03-14T10:56:19;10.20;99.90
20141;DHT22;10231;47.702;9.826;2023-03-14T10:58:47;10.20;99.90
20141;DHT22;10231;47.702;9.826;2023-03-14T11:03:51;10.10;99.90
20141;DHT22;10231;47.702;9.826;2023-03-14T11:06:44;10.10;99.90
20141;DHT22;10231;47.702;9.826;2023-03-14T11:11:54;10.10;99.90
20141;DHT22;10231;47.702;9.826;2023-03-14T11:14:53;10.00;99.90
20141;DHT22;10231;47.702;9.826;2023-03-14T11:17:35;10.00;99.90
20141;DHT22;10231;47.702;9.826;2023-03-14T11:20:25;9.90;99.90
20141;DHT22;10231;47.702;9.826;2023-03-14T11:28:10;9.80;99.90
20141;DHT22;10231;47.702;9.826;2023-03-14T11:30:59;10.00;99.90
20141;DHT22;10231;47.702;9.826;2023-03-14T11:33:37;9.60;99.90
20141;DHT22;10231;47.702;9.826;2023-03-14T11:36:07;9.40;99.90
20141;DHT22;10231;47.702;9.826;2023-03-14T11:40:59;9.30;99.90
20141;DHT22;10231;47.702;9.826;2023-03-14T11:43:34;9.20;99.90
20141;DHT22;10231;47.702;9.826;2023-03-14T11:46:25;9.20;99.90
20141;DHT22;10231;47.702;9.826;2023-03-14T11:49:24;9.00;99.90
20141;DHT22;10231;47.702;9.826;2023-03-14T11:51:58;9.00;99.90
20141;DHT22;10231;47.702;9.826;2023-03-14T11:54:45;9.00;99.90
20141;DHT22;10231;47.702;9.826;2023-03-14T11:57:18;8.90;99.90
20141;DHT22;10231;47.702;9.826;2023-03-14T12:05:43;8.70;99.90
20141;DHT22;10231;47.702;9.826;2023-03-14T12:13:54;8.60;99.90
20141;DHT22;10231;47.702;9.826;2023-03-14T12:16:30;8.60;99.90
20141;DHT22;10231;47.702;9.826;2023-03-14T12:18:55;8.60;99.90
20141;DHT22;10231;47.702;9.826;2023-03-14T12:22:17;8.50;99.90
20141;DHT22;10231;47.702;9.826;2023-03-14T12:24:36;8.40;99.90
20141;DHT22;10231;47.702;9.826;2023-03-14T12:27:04;8.40;99.90
20141;DHT22;10231;47.702;9.826;2023-03-14T12:29:30;8.30;99.90
20141;DHT22;10231;47.702;9.826;2023-03-14T12:32:23;8.30;99.90
20141;DHT22;10231;47.702;9.826;2023-03-14T12:34:49;8.20;99.90
20141;DHT22;10231;47.702;9.826;2023-03-14T12:37:36;8.30;99.90
20141;DHT22;10231;47.702;9.826;2023-03-14T12:45:32;7.90;99.90
20141;DHT22;10231;47.702;9.826;2023-03-14T12:48:21;7.70;99.90
20141;DHT22;10231;47.702;9.826;2023-03-14T12:51:02;7.60;99.90
20141;DHT22;10231;47.702;9.826;2023-03-14T12:54:06;7.50;99.90
20141;DHT22;10231;47.702;9.826;2023-03-14T12:56:44;7.40;99.90
20141;DHT22;10231;47.702;9.826;2023-03-14T13:01:58;7.00;99.90
20141;DHT22;10231;47.702;9.826;2023-03-14T13:05:11;6.80;99.90
20141;DHT22;10231;47.702;9.826;2023-03-14T13:10:23;6.80;99.90
20141;DHT22;10231;47.702;9.826;2023-03-14T13:15:46;6.90;99.90
20141;DHT22;10231;47.702;9.826;2023-03-14T13:18:35;6.90;99.90
20141;DHT22;10231;47.702;9.826;2023-03-14T13:21:07;7.00;99.90
20141;DHT22;10231;47.702;9.826;2023-03-14T13:23:37;7.00;99.90
20141;DHT22;10231;47.702;9.826;2023-03-14T13:26:11;7.10;99.90
20141;DHT22;10231;47.702;9.826;2023-03-14T13:28:38;7.20;99.90
20141;DHT22;10231;47.702;9.826;2023-03-14T13:31:04;7.20;99.90
20141;DHT22;10231;47.702;9.826;2023-03-14T13:33:33;7.20;99.90
20141;DHT22;10231;47.702;9.826;2023-03-14T13:36:02;7.20;99.90
20141;DHT22;10231;47.702;9.826;2023-03-14T13:38:31;7.20;99.90
20141;DHT22;10231;47.702;9.826;2023-03-14T13:40:59;7.20;99.90
20141;DHT22;10231;47.702;9.826;2023-03-14T13:43:35;7.20;99.90
20141;DHT22;10231;47.702;9.826;2023-03-14T13:48:31;7.30;99.90
20141;DHT22;10231;47.702;9.826;2023-03-14T13:51:03;7.30;99.90
20141;DHT22;10231;47.702;9.826;2023-03-14T13:53:29;7.20;99.90
20141;DHT22;10231;47.702;9.826;2023-03-14T13:55:56;7.20;99.90
20141;DHT22;10231;47.702;9.826;2023-03-14T13:58:25;7.20;99.90
20141;DHT22;10231;47.702;9.826;2023-03-14T14:01:01;7.20;99.90
20141;DHT22;10231;47.702;9.826;2023-03-14T14:03:29;7.20;99.90
20141;DHT22;10231;47.702;9.826;2023-03-14T14:05:56;7.20;99.90
20141;DHT22;10231;47.702;9.826;2023-03-14T14:08:23;7.20;99.90
20141;DHT22;10231;47.702;9.826;2023-03-14T14:10:50;7.20;99.90
20141;DHT22;10231;47.702;9.826;2023-03-14T14:13:20;7.10;99.90
20141;DHT22;10231;47.702;9.826;2023-03-14T14:15:49;6.70;99.90
20141;DHT22;10231;47.702;9.826;2023-03-14T14:18:18;6.60;99.90
20141;DHT22;10231;47.702;9.826;2023-03-14T14:20:47;6.50;99.90
20141;DHT22;10231;47.702;9.826;2023-03-14T14:23:19;6.20;99.90
20141;DHT22;10231;47.702;9.826;2023-03-14T14:25:50;6.00;99.90
20141;DHT22;10231;47.702;9.826;2023-03-14T14:31:22;6.00;99.90
20141;DHT22;10231;47.702;9.826;2023-03-14T14:34:03;6.10;99.90
20141;DHT22;10231;47.702;9.826;2023-03-14T14:36:32;6.30;99.90
20141;DHT22;10231;47.702;9.826;2023-03-14T14:39:00;6.60;99.90
20141;DHT22;10231;47.702;9.826;2023-03-14T14:41:31;7.00;99.90
20141;DHT22;10231;47.702;9.826;2023-03-14T14:43:58;7.40;99.90
20141;DHT22;10231;47.702;9.826;2023-03-14T14:46:27;7.70;99.90
20141;DHT22;10231;47.702;9.826;2023-03-14T14:48:57;7.70;99.90
20141;DHT22;10231;47.702;9.826;2023-03-14T14:51:25;7.50;99.90
20141;DHT22;10231;47.702;9.826;2023-03-14T14:54:03;7.40;99.90
20141;DHT22;10231;47.702;9.826;2023-03-14T14:56:29;7.50;99.90
20141;DHT22;10231;47.702;9.826;2023-03-14T14:58:59;7.80;99.90
20141;DHT22;10231;47.702;9.826;2023-03-14T15:01:39;8.40;99.90
20141;DHT22;10231;47.702;9.826;2023-03-14T15:04:13;9.30;99.90
20141;DHT22;10231;47.702;9.826;2023-03-14T15:06:43;9.80;99.90
20141;DHT22;10231;47.702;9.826;2023-03-14T15:09:10;9.90;99.90
20141;DHT22;10231;47.702;9.826;2023-03-14T15:11:36;10.00;99.90
20141;DHT22;10231;47.702;9.826;2023-03-14T15:14:02;9.70;99.90
20141;DHT22;10231;47.702;9.826;2023-03-14T15:16:30;9.50;99.90
20141;DHT22;10231;47.702;9.826;2023-03-14T15:19:02;10.00;99.90
20141;DHT22;10231;47.702;9.826;2023-03-14T15:21:31;10.30;99.90
20141;DHT22;10231;47.702;9.826;2023-03-14T15:23:57;9.80;99.90
20141;DHT22;10231;47.702;9.826;2023-03-14T15:26:27;9.30;99.90
20141;DHT22;10231;47.702;9.826;2023-03-14T15:28:53;9.10;99.90
20141;DHT22;10231;47.702;9.826;2023-03-14T15:31:19;9.40;99.90
20141;DHT22;10231;47.702;9.826;2023-03-14T15:33:47;9.40;99.90
20141;DHT22;10231;47.702;9.826;2023-03-14T15:36:29;9.20;99.90
20141;DHT22;10231;47.702;9.826;2023-03-14T15:38:56;9.00;99.90
20141;DHT22;10231;47.702;9.826;2023-03-14T15:41:24;9.10;99.90
20141;DHT22;10231;47.702;9.826;2023-03-14T15:43:50;9.60;99.90
20141;DHT22;10231;47.702;9.826;2023-03-14T15:46:17;9.40;99.90
20141;DHT22;10231;47.702;9.826;2023-03-14T15:48:46;9.10;99.90
20141;DHT22;10231;47.702;9.826;2023-03-14T15:51:12;8.70;99.90
20141;DHT22;10231;47.702;9.826;2023-03-14T15:53:38;8.50;99.90
20141;DHT22;10231;47.702;9.826;2023-03-14T15:56:11;8.50;99.90
20141;DHT22;10231;47.702;9.826;2023-03-14T15:58:36;8.30;99.90
20141;DHT22;10231;47.702;9.826;2023-03-14T16:01:06;9.30;99.90
20141;DHT22;10231;47.702;9.826;2023-03-14T16:03:35;10.00;99.90
20141;DHT22;10231;47.702;9.826;2023-03-14T16:06:01;10.10;99.90
20141;DHT22;10231;47.702;9.826;2023-03-14T16:08:26;10.20;99.90
20141;DHT22;10231;47.702;9.826;2023-03-14T16:10:54;10.00;99.90
20141;DHT22;10231;47.702;9.826;2023-03-14T16:13:20;10.40;99.90
20141;DHT22;10231;47.702;9.826;2023-03-14T16:16:00;11.10;99.90
20141;DHT22;10231;47.702;9.826;2023-03-14T16:18:28;10.90;99.90
20141;DHT22;10231;47.702;9.826;2023-03-14T16:20:56;10.50;99.90
20141;DHT22;10231;47.702;9.826;2023-03-14T16:23:22;10.50;99.90
20141;DHT22;10231;47.702;9.826;2023-03-14T16:25:48;10.30;99.90
20141;DHT22;10231;47.702;9.826;2023-03-14T16:28:14;10.20;99.90
20141;DHT22;10231;47.702;9.826;2023-03-14T16:30:40;9.90;99.90
20141;DHT22;10231;47.702;9.826;2023-03-14T16:33:05;9.60;99.90
20141;DHT22;10231;47.702;9.826;2023-03-14T16:35:35;9.30;99.90
20141;DHT22;10231;47.702;9.826;2023-03-14T16:38:01;9.10;99.90
20141;DHT22;10231;47.702;9.826;2023-03-14T16:40:26;9.00;99.90
20141;DHT22;10231;47.702;9.826;2023-03-14T16:42:52;9.10;99.90
20141;DHT22;10231;47.702;9.826;2023-03-14T16:45:18;9.10;99.90
20141;DHT22;10231;47.702;9.826;2023-03-14T16:47:44;8.90;99.90
20141;DHT22;10231;47.702;9.826;2023-03-14T16:50:10;8.80;99.90